createdAt,value
2017-12-02T00:00:29.770Z,83.60
2017-12-02T00:01:29.758Z,78.50
2017-12-02T00:02:29.746Z,75.50
2017-12-02T00:03:29.734Z,78.90
2017-12-02T00:04:29.720Z,88.20
2017-12-02T00:05:29.706Z,88.10
2017-12-02T00:06:29.694Z,93.70
2017-12-02T00:07:29.681Z,90.60
2017-12-02T00:08:29.674Z,92.50
2017-12-02T00:09:29.663Z,86.60
2017-12-02T00:10:29.649Z,86.80
2017-12-02T00:11:29.638Z,88.00
2017-12-02T00:12:29.622Z,87.30
2017-12-02T00:13:29.609Z,79.30
2017-12-02T00:14:29.597Z,83.00
2017-12-02T00:15:29.590Z,78.30
2017-12-02T00:16:29.573Z,76.90
2017-12-02T00:17:29.561Z,81.10
2017-12-02T00:18:29.551Z,80.20
2017-12-02T00:19:29.537Z,82.10
2017-12-02T00:20:29.528Z,89.80
2017-12-02T00:21:29.517Z,103.90
2017-12-02T00:22:29.505Z,106.10
2017-12-02T00:23:29.493Z,97.40
2017-12-02T00:24:29.480Z,92.20
2017-12-02T00:25:29.470Z,83.90
2017-12-02T00:26:29.455Z,88.60
2017-12-02T00:27:29.444Z,86.10
2017-12-02T00:28:29.427Z,83.50
2017-12-02T00:29:29.417Z,95.00
2017-12-02T00:30:29.402Z,85.40
2017-12-02T00:31:29.391Z,81.80
2017-12-02T00:32:29.379Z,79.50
2017-12-02T00:33:29.366Z,79.50
2017-12-02T00:34:29.354Z,86.20
2017-12-02T00:35:29.341Z,82.40
2017-12-02T00:36:29.333Z,82.70
2017-12-02T00:37:29.323Z,84.30
2017-12-02T00:38:29.309Z,79.80
2017-12-02T00:39:29.296Z,79.40
2017-12-02T00:40:29.283Z,69.20
2017-12-02T00:41:29.272Z,70.70
2017-12-02T00:42:29.261Z,67.90
2017-12-02T00:43:29.247Z,73.70
2017-12-02T00:44:29.231Z,78.00
2017-12-02T00:45:29.219Z,76.30
2017-12-02T00:46:29.207Z,74.30
2017-12-02T00:47:29.194Z,79.00
2017-12-02T00:48:29.182Z,77.10
2017-12-02T00:49:29.169Z,83.20
2017-12-02T00:50:29.157Z,88.70
2017-12-02T00:51:29.145Z,75.80
2017-12-02T00:52:29.137Z,88.20
2017-12-02T00:53:29.125Z,76.50
2017-12-02T00:54:29.113Z,81.70
2017-12-02T00:55:29.100Z,80.30
2017-12-02T00:56:29.088Z,80.90
2017-12-02T00:57:29.075Z,81.90
2017-12-02T00:58:29.064Z,84.20
2017-12-02T00:59:29.050Z,76.00
2017-12-02T01:00:29.034Z,77.40
2017-12-02T01:01:29.021Z,84.50
2017-12-02T01:02:29.010Z,91.20
2017-12-02T01:03:28.998Z,85.40
2017-12-02T01:04:28.984Z,87.30
2017-12-02T01:05:28.971Z,90.70
2017-12-02T01:06:28.959Z,82.80
2017-12-02T01:07:28.946Z,83.10
2017-12-02T01:08:28.940Z,85.40
2017-12-02T01:09:28.926Z,89.40
2017-12-02T01:10:28.913Z,87.60
2017-12-02T01:11:28.901Z,80.50
2017-12-02T01:12:28.885Z,72.50
2017-12-02T01:13:28.873Z,80.60
2017-12-02T01:14:28.859Z,82.40
2017-12-02T01:15:28.847Z,83.70
2017-12-02T01:16:28.839Z,84.40
2017-12-02T01:17:28.828Z,84.80
2017-12-02T01:18:28.813Z,83.40
2017-12-02T01:19:28.802Z,92.00
2017-12-02T01:20:28.790Z,83.60
2017-12-02T01:21:28.779Z,83.30
2017-12-02T01:22:28.764Z,79.00
2017-12-02T01:23:28.752Z,80.00
2017-12-02T01:24:28.737Z,82.00
2017-12-02T01:25:28.724Z,78.90
2017-12-02T01:26:28.710Z,86.90
2017-12-02T01:27:28.699Z,84.60
2017-12-02T01:28:28.686Z,88.70
2017-12-02T01:29:28.675Z,93.60
2017-12-02T01:30:28.661Z,96.00
2017-12-02T01:31:28.648Z,90.40
2017-12-02T01:32:28.641Z,93.80
2017-12-02T01:33:28.629Z,96.70
2017-12-02T01:34:28.620Z,116.60
2017-12-02T01:35:28.604Z,132.80
2017-12-02T01:36:28.593Z,143.60
2017-12-02T01:37:28.582Z,178.50
2017-12-02T01:38:28.568Z,147.40
2017-12-02T01:39:28.562Z,154.40
2017-12-02T01:40:28.541Z,168.70
2017-12-02T01:41:28.529Z,159.40
2017-12-02T01:42:28.517Z,168.20
2017-12-02T01:43:28.509Z,192.10
2017-12-02T01:44:28.494Z,208.40
2017-12-02T01:45:28.501Z,226.90
2017-12-02T01:46:28.469Z,227.10
2017-12-02T01:47:28.459Z,269.40
2017-12-02T01:48:28.451Z,229.00
2017-12-02T01:49:28.438Z,191.60
2017-12-02T01:50:28.427Z,313.70
2017-12-02T01:51:28.416Z,324.70
2017-12-02T01:52:28.403Z,309.20
2017-12-02T01:53:28.395Z,325.00
2017-12-02T01:54:28.380Z,217.40
2017-12-02T01:55:28.367Z,168.50
2017-12-02T01:56:28.353Z,186.10
2017-12-02T01:57:28.340Z,218.20
2017-12-02T01:58:28.328Z,206.80
2017-12-02T01:59:28.316Z,177.30
2017-12-02T02:00:28.307Z,259.50
2017-12-02T02:01:28.294Z,174.00
2017-12-02T02:02:28.282Z,250.90
2017-12-02T02:03:28.270Z,440.00
2017-12-02T02:04:28.262Z,428.90
2017-12-02T02:05:28.255Z,412.00
2017-12-02T02:06:28.239Z,329.50
2017-12-02T02:07:28.228Z,216.90
2017-12-02T02:08:28.217Z,375.30
2017-12-02T02:09:28.204Z,181.30
2017-12-02T02:10:28.192Z,215.40
2017-12-02T02:11:28.181Z,331.40
2017-12-02T02:12:28.166Z,304.60
2017-12-02T02:13:28.155Z,308.10
2017-12-02T02:14:28.142Z,291.80
2017-12-02T02:15:28.130Z,460.50
2017-12-02T02:16:28.125Z,333.90
2017-12-02T02:17:28.112Z,270.50
2017-12-02T02:18:28.100Z,195.30
2017-12-02T02:19:28.089Z,229.00
2017-12-02T02:20:28.074Z,272.70
2017-12-02T02:21:28.061Z,262.30
2017-12-02T02:22:28.050Z,203.70
2017-12-02T02:23:28.039Z,276.50
2017-12-02T02:24:28.027Z,244.30
2017-12-02T02:25:28.015Z,217.50
2017-12-02T02:26:28.006Z,195.60
2017-12-02T02:27:27.992Z,213.30
2017-12-02T02:28:27.985Z,177.90
2017-12-02T02:29:27.975Z,147.90
2017-12-02T02:30:27.962Z,197.80
2017-12-02T02:31:27.951Z,239.50
2017-12-02T02:32:27.940Z,213.90
2017-12-02T02:33:27.928Z,147.80
2017-12-02T02:34:27.915Z,173.80
2017-12-02T02:35:27.904Z,193.30
2017-12-02T02:36:27.889Z,186.70
2017-12-02T02:37:27.879Z,195.00
2017-12-02T02:38:27.866Z,176.20
2017-12-02T02:39:27.853Z,134.10
2017-12-02T02:40:27.843Z,161.50
2017-12-02T02:41:27.832Z,126.20
2017-12-02T02:42:27.821Z,127.40
2017-12-02T02:43:27.809Z,136.00
2017-12-02T02:44:27.802Z,112.10
2017-12-02T02:45:27.789Z,168.70
2017-12-02T02:46:27.778Z,175.50
2017-12-02T02:47:27.766Z,143.00
2017-12-02T02:48:27.753Z,115.10
2017-12-02T02:49:27.743Z,127.10
2017-12-02T02:50:27.730Z,208.00
2017-12-02T02:51:27.720Z,112.70
2017-12-02T02:52:27.703Z,116.50
2017-12-02T02:53:27.693Z,159.00
2017-12-02T02:54:27.680Z,135.10
2017-12-02T02:55:27.675Z,125.60
2017-12-02T02:56:27.656Z,126.50
2017-12-02T02:57:27.646Z,143.30
2017-12-02T02:58:27.633Z,113.80
2017-12-02T02:59:27.621Z,108.80
2017-12-02T03:00:27.616Z,145.10
2017-12-02T03:01:27.604Z,114.40
2017-12-02T03:02:27.591Z,132.50
2017-12-02T03:03:27.579Z,128.60
2017-12-02T03:04:27.618Z,105.70
2017-12-02T03:05:27.557Z,107.50
2017-12-02T03:06:27.549Z,133.00
2017-12-02T03:07:27.535Z,140.30
2017-12-02T03:08:27.518Z,110.40
2017-12-02T03:09:27.506Z,105.60
2017-12-02T03:10:27.495Z,95.80
2017-12-02T03:11:27.484Z,172.90
2017-12-02T03:12:27.474Z,91.10
2017-12-02T03:13:27.461Z,96.40
2017-12-02T03:14:27.449Z,88.50
2017-12-02T03:15:27.439Z,102.90
2017-12-02T03:16:27.433Z,110.50
2017-12-02T03:17:27.420Z,96.00
2017-12-02T03:18:27.411Z,98.90
2017-12-02T03:19:27.397Z,94.70
2017-12-02T03:20:27.382Z,84.60
2017-12-02T03:21:27.369Z,90.10
2017-12-02T03:22:27.357Z,96.60
2017-12-02T03:23:27.346Z,85.30
2017-12-02T03:24:27.340Z,94.10
2017-12-02T03:25:27.329Z,99.70
2017-12-02T03:26:27.316Z,86.20
2017-12-02T03:27:27.311Z,92.10
2017-12-02T03:28:27.293Z,96.70
2017-12-02T03:29:27.283Z,89.40
2017-12-02T03:30:27.272Z,106.00
2017-12-02T03:31:27.261Z,84.60
2017-12-02T03:32:27.244Z,80.70
2017-12-02T03:33:27.233Z,93.50
2017-12-02T03:34:27.222Z,89.80
2017-12-02T03:35:27.211Z,97.50
2017-12-02T03:36:27.198Z,95.10
2017-12-02T03:37:27.188Z,83.70
2017-12-02T03:38:27.175Z,85.20
2017-12-02T03:39:27.164Z,83.80
2017-12-02T03:40:27.158Z,86.70
2017-12-02T03:41:27.146Z,91.10
2017-12-02T03:42:27.135Z,97.30
2017-12-02T03:43:27.123Z,104.50
2017-12-02T03:44:27.112Z,99.40
2017-12-02T03:45:27.100Z,118.00
2017-12-02T03:46:27.089Z,92.90
2017-12-02T03:47:27.079Z,123.00
2017-12-02T03:48:27.063Z,96.70
2017-12-02T03:49:27.051Z,96.80
2017-12-02T03:50:27.039Z,101.50
2017-12-02T03:51:27.027Z,107.60
2017-12-02T03:52:27.017Z,100.70
2017-12-02T03:53:27.006Z,121.40
2017-12-02T03:54:26.994Z,98.40
2017-12-02T03:55:26.985Z,95.50
2017-12-02T03:56:26.976Z,104.90
2017-12-02T03:57:26.964Z,103.90
2017-12-02T03:58:26.952Z,106.80
2017-12-02T03:59:26.943Z,129.90
2017-12-02T04:00:26.930Z,116.10
2017-12-02T04:01:26.920Z,105.20
2017-12-02T04:02:26.907Z,102.20
2017-12-02T04:03:26.896Z,102.10
2017-12-02T04:04:26.883Z,126.70
2017-12-02T04:05:26.871Z,122.20
2017-12-02T04:06:26.859Z,111.20
2017-12-02T04:07:26.852Z,105.90
2017-12-02T04:08:26.836Z,111.60
2017-12-02T04:09:26.826Z,104.50
2017-12-02T04:10:26.813Z,107.20
2017-12-02T04:11:26.803Z,109.30
2017-12-02T04:12:26.796Z,107.10
2017-12-02T04:13:26.785Z,153.00
2017-12-02T04:14:26.772Z,133.30
2017-12-02T04:15:26.763Z,120.90
2017-12-02T04:16:26.751Z,106.20
2017-12-02T04:17:26.739Z,107.20
2017-12-02T04:18:26.728Z,100.60
2017-12-02T04:19:26.717Z,104.10
2017-12-02T04:20:26.701Z,100.10
2017-12-02T04:21:26.691Z,122.70
2017-12-02T04:22:26.678Z,149.60
2017-12-02T04:23:26.666Z,109.70
2017-12-02T04:24:26.661Z,134.00
2017-12-02T04:25:26.649Z,133.50
2017-12-02T04:26:26.637Z,117.10
2017-12-02T04:27:26.626Z,128.30
2017-12-02T04:28:26.611Z,106.70
2017-12-02T04:29:26.600Z,130.70
2017-12-02T04:30:26.611Z,91.60
2017-12-02T04:31:26.577Z,121.70
2017-12-02T04:32:26.566Z,124.10
2017-12-02T04:33:26.555Z,101.30
2017-12-02T04:34:26.543Z,116.90
2017-12-02T04:35:26.532Z,130.70
2017-12-02T04:36:26.524Z,127.70
2017-12-02T04:37:26.518Z,160.50
2017-12-02T04:38:26.501Z,217.00
2017-12-02T04:39:26.493Z,171.50
2017-12-02T04:40:26.479Z,103.60
2017-12-02T04:41:26.469Z,118.00
2017-12-02T04:42:26.456Z,133.70
2017-12-02T04:43:26.446Z,209.00
2017-12-02T04:44:26.431Z,191.50
2017-12-02T04:45:26.418Z,212.40
2017-12-02T04:46:26.407Z,179.70
2017-12-02T04:47:26.395Z,142.10
2017-12-02T04:48:26.384Z,136.50
2017-12-02T04:49:26.372Z,160.70
2017-12-02T04:50:26.360Z,196.90
2017-12-02T04:51:26.349Z,433.90
2017-12-02T04:52:26.341Z,275.80
2017-12-02T04:53:26.332Z,191.60
2017-12-02T04:54:26.319Z,201.60
2017-12-02T04:55:26.307Z,192.00
2017-12-02T04:56:26.296Z,191.70
2017-12-02T04:57:26.285Z,157.80
2017-12-02T04:58:26.276Z,127.60
2017-12-02T04:59:26.266Z,191.90
2017-12-02T05:00:26.245Z,140.20
2017-12-02T05:01:26.234Z,134.50
2017-12-02T05:02:26.224Z,267.40
2017-12-02T05:03:26.214Z,250.70
2017-12-02T05:04:26.237Z,269.30
2017-12-02T05:05:26.190Z,216.00
2017-12-02T05:06:26.177Z,165.40
2017-12-02T05:07:26.167Z,219.00
2017-12-02T05:08:26.160Z,239.70
2017-12-02T05:09:26.148Z,288.90
2017-12-02T05:10:26.136Z,275.20
2017-12-02T05:11:26.125Z,253.80
2017-12-02T05:12:26.114Z,269.30
2017-12-02T05:13:26.104Z,285.20
2017-12-02T05:14:26.092Z,254.40
2017-12-02T05:15:26.080Z,325.60
2017-12-02T05:16:26.065Z,270.70
2017-12-02T05:17:26.055Z,309.10
2017-12-02T05:18:26.041Z,201.40
2017-12-02T05:19:26.032Z,258.70
2017-12-02T05:20:26.020Z,283.50
2017-12-02T05:21:26.009Z,204.80
2017-12-02T05:22:25.996Z,318.70
2017-12-02T05:23:25.986Z,281.20
2017-12-02T05:24:25.979Z,204.60
2017-12-02T05:25:25.969Z,183.10
2017-12-02T05:26:25.958Z,303.00
2017-12-02T05:27:25.946Z,388.60
2017-12-02T05:28:25.931Z,523.50
2017-12-02T05:29:25.921Z,261.50
2017-12-02T05:30:25.909Z,270.10
2017-12-02T05:31:25.896Z,298.20
2017-12-02T05:32:25.890Z,726.50
2017-12-02T05:33:25.879Z,834.90
2017-12-02T05:34:25.867Z,633.00
2017-12-02T05:35:25.864Z,519.70
2017-12-02T05:36:25.846Z,535.00
2017-12-02T05:37:25.833Z,639.80
2017-12-02T05:38:25.821Z,677.10
2017-12-02T05:39:25.812Z,374.20
2017-12-02T05:40:25.795Z,598.30
2017-12-02T05:41:25.785Z,645.00
2017-12-02T05:42:25.773Z,318.70
2017-12-02T05:43:25.761Z,334.80
2017-12-02T05:44:25.750Z,297.70
2017-12-02T05:45:25.740Z,307.20
2017-12-02T05:46:25.727Z,693.20
2017-12-02T05:47:25.717Z,409.90
2017-12-02T05:48:25.710Z,379.60
2017-12-02T05:49:25.699Z,438.10
2017-12-02T05:50:25.686Z,332.50
2017-12-02T05:51:25.675Z,322.20
2017-12-02T05:52:25.664Z,311.00
2017-12-02T05:53:25.653Z,333.50
2017-12-02T05:54:25.643Z,308.40
2017-12-02T05:55:25.629Z,651.90
2017-12-02T05:56:25.614Z,360.80
2017-12-02T05:57:25.605Z,278.00
2017-12-02T05:58:25.592Z,468.30
2017-12-02T05:59:25.580Z,466.80
2017-12-02T06:00:25.570Z,371.10
2017-12-02T06:01:25.561Z,367.00
2017-12-02T06:02:25.547Z,261.70
2017-12-02T06:03:25.534Z,234.20
2017-12-02T06:04:25.527Z,226.40
2017-12-02T06:05:25.516Z,304.00
2017-12-02T06:06:25.505Z,219.40
2017-12-02T06:07:25.494Z,297.30
2017-12-02T06:08:25.482Z,447.80
2017-12-02T06:09:25.471Z,632.30
2017-12-02T06:10:25.516Z,401.40
2017-12-02T06:11:25.447Z,546.70
2017-12-02T06:12:25.432Z,422.40
2017-12-02T06:13:25.422Z,344.80
2017-12-02T06:14:25.409Z,377.70
2017-12-02T06:15:25.402Z,403.60
2017-12-02T06:16:25.391Z,363.80
2017-12-02T06:17:25.376Z,321.40
2017-12-02T06:18:25.364Z,198.20
2017-12-02T06:19:25.380Z,286.80
2017-12-02T06:20:25.346Z,206.80
2017-12-02T06:21:25.335Z,293.20
2017-12-02T06:22:25.325Z,187.70
2017-12-02T06:23:25.312Z,248.80
2017-12-02T06:24:25.300Z,279.70
2017-12-02T06:25:25.293Z,291.20
2017-12-02T06:26:25.277Z,193.80
2017-12-02T06:27:25.266Z,199.50
2017-12-02T06:28:25.250Z,281.80
2017-12-02T06:29:25.243Z,381.40
2017-12-02T06:30:25.227Z,292.70
2017-12-02T06:31:25.216Z,224.20
2017-12-02T06:32:25.210Z,264.90
2017-12-02T06:33:25.200Z,269.60
2017-12-02T06:34:25.190Z,210.50
2017-12-02T06:35:25.176Z,261.30
2017-12-02T06:36:25.162Z,390.90
2017-12-02T06:37:25.149Z,230.00
2017-12-02T06:38:25.137Z,202.00
2017-12-02T06:39:25.126Z,180.30
2017-12-02T06:40:25.166Z,212.00
2017-12-02T06:41:25.104Z,242.50
2017-12-02T06:42:25.093Z,172.20
2017-12-02T06:43:25.082Z,171.90
2017-12-02T06:44:25.074Z,282.60
2017-12-02T06:45:25.063Z,180.00
2017-12-02T06:46:25.052Z,215.60
2017-12-02T06:47:25.040Z,149.00
2017-12-02T06:48:25.066Z,175.60
2017-12-02T06:49:25.018Z,204.50
2017-12-02T06:50:25.006Z,233.40
2017-12-02T06:51:24.998Z,243.40
2017-12-02T06:52:24.992Z,233.90
2017-12-02T06:53:24.974Z,272.80
2017-12-02T06:54:24.957Z,311.80
2017-12-02T06:55:24.950Z,286.90
2017-12-02T06:56:24.936Z,170.50
2017-12-02T06:57:24.925Z,356.60
2017-12-02T06:58:24.912Z,167.90
2017-12-02T06:59:24.901Z,341.90
2017-12-02T07:00:24.894Z,248.50
2017-12-02T07:01:24.884Z,297.00
2017-12-02T07:02:24.871Z,187.20
2017-12-02T07:03:24.861Z,240.60
2017-12-02T07:04:24.849Z,312.20
2017-12-02T07:05:24.838Z,220.90
2017-12-02T07:06:24.829Z,243.10
2017-12-02T07:07:24.815Z,221.00
2017-12-02T07:08:24.800Z,198.70
2017-12-02T07:09:24.790Z,178.90
2017-12-02T07:10:24.838Z,246.30
2017-12-02T07:11:24.767Z,242.80
2017-12-02T07:12:24.756Z,376.90
2017-12-02T07:13:24.744Z,328.30
2017-12-02T07:14:24.731Z,197.00
2017-12-02T07:15:24.720Z,220.00
2017-12-02T07:16:24.735Z,279.00
2017-12-02T07:17:24.703Z,193.50
2017-12-02T07:18:24.691Z,222.60
2017-12-02T07:19:24.681Z,229.00
2017-12-02T07:20:24.692Z,236.10
2017-12-02T07:21:24.660Z,186.40
2017-12-02T07:22:24.648Z,234.90
2017-12-02T07:23:24.636Z,247.70
2017-12-02T07:24:24.621Z,209.80
2017-12-02T07:25:24.610Z,195.20
2017-12-02T07:26:24.601Z,253.50
2017-12-02T07:27:24.586Z,234.60
2017-12-02T07:28:24.575Z,300.40
2017-12-02T07:29:24.564Z,382.70
2017-12-02T07:30:24.552Z,434.80
2017-12-02T07:31:24.541Z,310.30
2017-12-02T07:32:24.536Z,274.70
2017-12-02T07:33:24.524Z,245.30
2017-12-02T07:34:24.512Z,228.70
2017-12-02T07:35:24.501Z,155.10
2017-12-02T07:36:24.490Z,232.70
2017-12-02T07:37:24.480Z,301.00
2017-12-02T07:38:24.467Z,201.80
2017-12-02T07:39:24.456Z,242.40
2017-12-02T07:40:24.442Z,192.20
2017-12-02T07:41:24.430Z,217.00
2017-12-02T07:42:24.419Z,309.20
2017-12-02T07:43:24.408Z,267.50
2017-12-02T07:44:24.396Z,348.50
2017-12-02T07:45:24.385Z,248.60
2017-12-02T07:46:24.375Z,197.80
2017-12-02T07:47:24.363Z,158.20
2017-12-02T07:48:24.356Z,233.10
2017-12-02T07:49:24.345Z,281.60
2017-12-02T07:50:24.353Z,160.80
2017-12-02T07:51:24.322Z,182.30
2017-12-02T07:52:24.312Z,207.30
2017-12-02T07:53:24.300Z,160.30
2017-12-02T07:54:24.288Z,152.00
2017-12-02T07:55:24.277Z,112.10
2017-12-02T07:56:24.266Z,189.60
2017-12-02T07:57:24.252Z,259.60
2017-12-02T07:58:24.241Z,137.70
2017-12-02T07:59:24.228Z,126.70
2017-12-02T08:00:24.218Z,150.00
2017-12-02T08:01:24.206Z,180.40
2017-12-02T08:02:24.196Z,226.00
2017-12-02T08:03:24.184Z,181.30
2017-12-02T08:04:24.177Z,224.90
2017-12-02T08:05:24.166Z,143.50
2017-12-02T08:06:24.155Z,163.90
2017-12-02T08:07:24.144Z,375.40
2017-12-02T08:08:24.133Z,144.60
2017-12-02T08:09:24.124Z,169.80
2017-12-02T08:10:24.110Z,165.50
2017-12-02T08:11:24.100Z,145.10
2017-12-02T08:12:24.086Z,167.80
2017-12-02T08:13:24.073Z,157.30
2017-12-02T08:14:24.067Z,128.00
2017-12-02T08:15:24.051Z,125.60
2017-12-02T08:16:24.040Z,117.60
2017-12-02T08:17:24.037Z,100.90
2017-12-02T08:18:24.018Z,113.30
2017-12-02T08:19:24.006Z,106.80
2017-12-02T08:20:23.999Z,122.40
2017-12-02T08:21:23.989Z,125.10
2017-12-02T08:22:23.976Z,106.30
2017-12-02T08:23:23.967Z,151.10
2017-12-02T08:24:23.955Z,174.20
2017-12-02T08:25:23.944Z,163.30
2017-12-02T08:26:23.932Z,133.30
2017-12-02T08:27:23.922Z,144.30
2017-12-02T08:28:23.907Z,119.70
2017-12-02T08:29:23.896Z,115.00
2017-12-02T08:30:23.884Z,106.60
2017-12-02T08:31:23.873Z,133.60
2017-12-02T08:32:23.862Z,115.50
2017-12-02T08:33:23.853Z,114.30
2017-12-02T08:34:23.842Z,113.50
2017-12-02T08:35:23.830Z,139.60
2017-12-02T08:36:23.823Z,121.00
2017-12-02T08:37:23.812Z,123.50
2017-12-02T08:38:23.801Z,183.80
2017-12-02T08:39:23.790Z,180.00
2017-12-02T08:40:23.775Z,224.40
2017-12-02T08:41:23.766Z,165.00
2017-12-02T08:42:23.752Z,135.70
2017-12-02T08:43:23.741Z,147.70
2017-12-02T08:44:23.738Z,118.10
2017-12-02T08:45:23.728Z,170.40
2017-12-02T08:46:23.712Z,157.70
2017-12-02T08:47:23.704Z,176.90
2017-12-02T08:48:23.691Z,150.10
2017-12-02T08:49:23.681Z,124.80
2017-12-02T08:50:23.668Z,157.20
2017-12-02T08:51:23.658Z,193.00
2017-12-02T08:52:23.643Z,166.00
2017-12-02T08:53:23.631Z,196.10
2017-12-02T08:54:23.620Z,118.40
2017-12-02T08:55:23.609Z,161.10
2017-12-02T08:56:23.599Z,158.00
2017-12-02T08:57:23.587Z,119.80
2017-12-02T08:58:23.576Z,108.30
2017-12-02T08:59:23.565Z,196.80
2017-12-02T09:00:23.560Z,147.40
2017-12-02T09:01:23.549Z,188.90
2017-12-02T09:02:23.536Z,155.30
2017-12-02T09:03:23.527Z,163.70
2017-12-02T09:04:23.515Z,155.30
2017-12-02T09:05:23.505Z,155.50
2017-12-02T09:06:23.494Z,162.10
2017-12-02T09:07:23.483Z,140.00
2017-12-02T09:08:23.469Z,158.60
2017-12-02T09:09:23.459Z,143.70
2017-12-02T09:10:23.446Z,130.10
2017-12-02T09:11:23.437Z,127.20
2017-12-02T09:12:23.440Z,125.50
2017-12-02T09:13:23.415Z,114.90
2017-12-02T09:14:23.405Z,120.30
2017-12-02T09:15:23.394Z,181.50
2017-12-02T09:16:23.389Z,148.50
2017-12-02T09:17:23.377Z,129.40
2017-12-02T09:18:23.366Z,116.40
2017-12-02T09:19:23.357Z,148.40
2017-12-02T09:20:23.346Z,187.70
2017-12-02T09:21:23.336Z,132.60
2017-12-02T09:22:23.324Z,154.50
2017-12-02T09:23:23.315Z,158.40
2017-12-02T09:24:23.299Z,173.90
2017-12-02T09:25:23.290Z,130.90
2017-12-02T09:26:23.278Z,159.00
2017-12-02T09:27:23.269Z,122.70
2017-12-02T09:28:23.258Z,120.50
2017-12-02T09:29:23.248Z,222.10
2017-12-02T09:30:23.236Z,171.00
2017-12-02T09:31:23.226Z,134.30
2017-12-02T09:32:23.220Z,159.40
2017-12-02T09:33:23.210Z,148.90
2017-12-02T09:34:23.200Z,157.30
2017-12-02T09:35:23.189Z,157.70
2017-12-02T09:36:23.179Z,193.60
2017-12-02T09:37:23.170Z,143.50
2017-12-02T09:38:23.157Z,148.80
2017-12-02T09:39:23.148Z,144.70
2017-12-02T09:40:23.135Z,185.90
2017-12-02T09:41:23.122Z,171.20
2017-12-02T09:42:23.112Z,160.90
2017-12-02T09:43:23.102Z,155.30
2017-12-02T09:44:23.096Z,152.60
2017-12-02T09:45:23.085Z,173.90
2017-12-02T09:46:23.077Z,141.30
2017-12-02T09:47:23.063Z,198.50
2017-12-02T09:48:23.049Z,132.00
2017-12-02T09:49:23.039Z,183.70
2017-12-02T09:50:23.028Z,189.90
2017-12-02T09:51:23.018Z,148.10
2017-12-02T09:52:23.009Z,126.90
2017-12-02T09:53:22.997Z,149.30
2017-12-02T09:54:22.987Z,130.60
2017-12-02T09:55:22.977Z,144.40
2017-12-02T09:56:22.971Z,193.00
2017-12-02T09:57:22.961Z,186.60
2017-12-02T09:58:22.949Z,163.50
2017-12-02T09:59:22.940Z,139.70
2017-12-02T10:00:22.928Z,138.70
2017-12-02T10:01:22.919Z,135.50
2017-12-02T10:02:22.907Z,113.40
2017-12-02T10:03:22.897Z,133.90
2017-12-02T10:04:22.884Z,206.50
2017-12-02T10:05:22.873Z,123.30
2017-12-02T10:06:22.863Z,178.00
2017-12-02T10:07:22.852Z,137.60
2017-12-02T10:08:22.842Z,128.70
2017-12-02T10:09:22.832Z,126.10
2017-12-02T10:10:22.821Z,112.10
2017-12-02T10:11:22.812Z,113.30
2017-12-02T10:12:22.806Z,114.60
2017-12-02T10:13:22.796Z,127.20
2017-12-02T10:14:22.785Z,124.30
2017-12-02T10:15:22.774Z,115.30
2017-12-02T10:16:22.767Z,121.90
2017-12-02T10:17:22.762Z,120.40
2017-12-02T10:18:22.753Z,167.50
2017-12-02T10:19:22.734Z,108.40
2017-12-02T10:20:22.719Z,130.20
2017-12-02T10:21:22.708Z,115.60
2017-12-02T10:22:22.699Z,130.90
2017-12-02T10:23:22.688Z,125.80
2017-12-02T10:24:22.679Z,108.20
2017-12-02T10:25:22.669Z,147.80
2017-12-02T10:26:22.657Z,134.90
2017-12-02T10:27:22.647Z,135.60
2017-12-02T10:28:22.641Z,128.30
2017-12-02T10:29:22.633Z,142.00
2017-12-02T10:30:22.622Z,130.00
2017-12-02T10:31:22.610Z,132.10
2017-12-02T10:32:22.603Z,122.60
2017-12-02T10:33:22.591Z,144.50
2017-12-02T10:34:22.582Z,155.30
2017-12-02T10:35:22.570Z,130.20
2017-12-02T10:36:22.557Z,126.00
2017-12-02T10:37:22.546Z,130.00
2017-12-02T10:38:22.535Z,128.50
2017-12-02T10:39:22.526Z,132.80
2017-12-02T10:40:22.515Z,120.50
2017-12-02T10:41:22.506Z,143.60
2017-12-02T10:42:22.496Z,136.40
2017-12-02T10:43:22.485Z,128.50
2017-12-02T10:44:22.479Z,139.70
2017-12-02T10:45:22.473Z,128.00
2017-12-02T10:46:22.458Z,117.20
2017-12-02T10:47:22.448Z,136.40
2017-12-02T10:48:22.435Z,121.80
2017-12-02T10:49:22.423Z,131.10
2017-12-02T10:50:22.421Z,140.60
2017-12-02T10:51:22.403Z,127.10
2017-12-02T10:52:22.397Z,112.90
2017-12-02T10:53:22.386Z,129.30
2017-12-02T10:54:22.377Z,155.00
2017-12-02T10:55:22.401Z,141.00
2017-12-02T10:56:22.357Z,134.80
2017-12-02T10:57:22.346Z,119.30
2017-12-02T10:58:22.336Z,124.90
2017-12-02T10:59:22.325Z,121.80
2017-12-02T11:00:22.310Z,136.70
2017-12-02T11:01:22.301Z,127.80
2017-12-02T11:02:22.291Z,134.60
2017-12-02T11:03:22.279Z,167.60
2017-12-02T11:04:22.269Z,205.20
2017-12-02T11:05:22.260Z,214.00
2017-12-02T11:06:22.249Z,160.90
2017-12-02T11:07:22.238Z,132.30
2017-12-02T11:08:22.234Z,178.80
2017-12-02T11:09:22.221Z,188.00
2017-12-02T11:10:22.212Z,219.80
2017-12-02T11:11:22.202Z,167.70
2017-12-02T11:12:22.191Z,188.20
2017-12-02T11:13:22.181Z,170.10
2017-12-02T11:14:22.170Z,167.20
2017-12-02T11:15:22.161Z,175.10
2017-12-02T11:16:22.147Z,166.80
2017-12-02T11:17:22.137Z,138.90
2017-12-02T11:18:22.126Z,144.40
2017-12-02T11:19:22.115Z,149.60
2017-12-02T11:20:22.116Z,170.30
2017-12-02T11:21:22.096Z,155.40
2017-12-02T11:22:22.085Z,139.10
2017-12-02T11:23:22.076Z,123.80
2017-12-02T11:24:22.068Z,137.20
2017-12-02T11:25:22.059Z,126.10
2017-12-02T11:26:22.050Z,122.50
2017-12-02T11:27:22.039Z,152.50
2017-12-02T11:28:22.029Z,140.20
2017-12-02T11:29:22.021Z,204.00
2017-12-02T11:30:22.008Z,133.30
2017-12-02T11:31:21.998Z,143.00
2017-12-02T11:32:22.012Z,128.50
2017-12-02T11:33:21.975Z,137.30
2017-12-02T11:34:21.964Z,127.30
2017-12-02T11:35:21.954Z,138.80
2017-12-02T11:36:21.945Z,134.90
2017-12-02T11:37:21.936Z,122.50
2017-12-02T11:38:21.926Z,138.00
2017-12-02T11:39:21.916Z,126.60
2017-12-02T11:40:21.915Z,141.80
2017-12-02T11:41:21.901Z,127.00
2017-12-02T11:42:21.890Z,146.20
2017-12-02T11:43:21.881Z,151.00
2017-12-02T11:44:21.878Z,149.20
2017-12-02T11:45:21.861Z,127.90
2017-12-02T11:46:21.852Z,147.60
2017-12-02T11:47:21.840Z,156.30
2017-12-02T11:48:21.827Z,134.30
2017-12-02T11:49:21.817Z,130.20
2017-12-02T11:50:21.812Z,158.40
2017-12-02T11:51:21.798Z,150.90
2017-12-02T11:52:21.793Z,138.70
2017-12-02T11:53:21.783Z,156.00
2017-12-02T11:54:21.772Z,157.00
2017-12-02T11:55:21.763Z,147.10
2017-12-02T11:56:21.750Z,157.90
2017-12-02T11:57:21.740Z,146.60
2017-12-02T11:58:21.737Z,136.00
2017-12-02T11:59:21.725Z,147.60
2017-12-02T12:00:21.711Z,141.20
2017-12-02T12:01:21.701Z,141.90
2017-12-02T12:02:21.691Z,130.50
2017-12-02T12:03:21.681Z,126.00
2017-12-02T12:04:21.677Z,125.60
2017-12-02T12:05:21.667Z,124.50
2017-12-02T12:06:21.660Z,121.50
2017-12-02T12:07:21.648Z,124.00
2017-12-02T12:08:21.639Z,126.80
2017-12-02T12:09:21.629Z,125.60
2017-12-02T12:10:21.618Z,122.70
2017-12-02T12:11:21.610Z,117.50
2017-12-02T12:12:21.641Z,119.20
2017-12-02T12:13:21.585Z,118.60
2017-12-02T12:14:21.576Z,117.90
2017-12-02T12:15:21.566Z,113.00
2017-12-02T12:16:21.556Z,109.60
2017-12-02T12:17:21.547Z,102.00
2017-12-02T12:18:21.537Z,103.20
2017-12-02T12:19:21.526Z,106.40
2017-12-02T12:20:21.523Z,117.10
2017-12-02T12:21:21.513Z,109.00
2017-12-02T12:22:21.503Z,100.50
2017-12-02T12:23:21.493Z,103.50
2017-12-02T12:24:21.483Z,102.80
2017-12-02T12:25:21.475Z,107.30
2017-12-02T12:26:21.463Z,109.50
2017-12-02T12:27:21.455Z,120.30
2017-12-02T12:28:21.440Z,112.40
2017-12-02T12:29:21.432Z,112.80
2017-12-02T12:30:21.421Z,115.00
2017-12-02T12:31:21.750Z,113.90
2017-12-02T12:32:21.403Z,111.50